CST,Max TemperatureF,Mean TemperatureF,Min TemperatureF,Max Dew PointF,MeanDew PointF,Min DewpointF,Max Humidity, Mean Humidity, Min Humidity, Max Sea Level PressureIn, Mean Sea Level PressureIn, Min Sea Level PressureIn, Max VisibilityMiles, Mean VisibilityMiles, Min VisibilityMiles, Max Wind SpeedMPH, Mean Wind SpeedMPH, Max Gust SpeedMPH,PrecipitationIn, CloudCover, Events, WindDirDegrees
2011-12-1,58,43,28,41,34,27,95,72,42,30.35,30.29,30.21,10,10,10,9,5,,0.00,0,Rain,30
2011-12-2,66,50,35,46,40,33,93,72,42,30.43,30.38,30.33,10,10,10,8,6,,0.00,0,,52
2011-12-3,69,56,44,55,47,35,81,65,46,30.42,30.34,30.29,10,10,10,13,7,,0.00,2,,91
2011-12-4,69,64,58,60,56,53,86,76,64,30.28,30.22,30.12,10,10,10,17,10,25,0.00,2,Rain,100
2011-12-5,71,66,62,70,65,60,100,92,83,30.11,30.06,30.02,10,10,6,14,8,18,0.09,7,Rain,124
2011-12-6,75,68,60,70,67,59,100,92,83,30.09,30.03,29.97,10,10,5,10,7,,0.00,6,Rain,179
2011-12-7,57,48,39,55,42,32,100,83,52,30.35,30.11,29.98,10,10,6,22,11,33,0.01,6,Rain,316
2011-12-8,52,42,33,38,34,30,95,76,48,30.40,30.29,30.23,10,9,7,17,9,24,0.00,1,,349
2011-12-9,60,46,32,41,37,31,94,66,42,30.29,30.25,30.21,10,10,10,12,7,,0.00,1,,358
2011-12-10,55,48,41,36,32,30,73,58,38,30.37,30.32,30.28,10,10,10,20,12,25,0.00,1,,14
2011-12-11,53,44,36,47,41,30,96,79,59,30.38,30.30,30.27,10,8,3,15,10,20,0.14,6,Rain,42
2011-12-12,62,54,47,53,49,46,96,89,71,30.37,30.33,30.29,10,10,10,14,7,,0.01,7,Rain,37
2011-12-13,66,57,48,55,51,47,100,84,64,30.41,30.36,30.31,10,10,3,10,7,,0.00,4,Rain,55
2011-12-14,68,60,52,61,57,50,92,83,70,30.33,30.28,30.22,10,10,10,10,7,17,0.00,2,,102
2011-12-15,70,59,48,64,60,48,100,90,77,30.24,30.19,30.15,10,9,3,14,7,,0.00,3,,109
2011-12-16,71,61,51,65,58,52,100,98,73,30.22,30.18,30.14,10,3,0,8,2,,0.00,1,Fog,43
2011-12-17,62,51,39,61,52,34,100,87,44,30.36,30.24,30.19,10,8,0,17,5,17,0.00,5,Fog,352
2011-12-18,62,49,36,38,32,28,84,59,27,30.39,30.33,30.28,10,10,10,13,9,,0.00,0,,18
2011-12-19,66,51,36,64,55,31,94,85,74,30.26,30.17,30.10,10,10,10,14,9,20,0.00,6,,104
2011-12-20,69,67,65,68,65,63,100,94,86,30.12,30.05,29.97,10,9,3,18,10,18,0.02,8,Rain,124
2011-12-21,75,70,65,70,68,64,100,97,83,30.03,29.99,29.96,10,7,1,15,7,21,0.33,8,Rain,165
2011-12-22,73,68,62,70,68,62,100,97,88,30.07,29.99,29.93,10,6,0,21,5,29,0.18,7,Fog-Rain-Thunderstorm,171
2011-12-23,62,56,48,63,53,45,100,89,67,30.29,30.17,30.06,10,10,10,15,12,22,0.00,7,Rain,355
2011-12-24,67,56,45,49,45,42,93,74,44,30.37,30.30,30.25,10,10,10,15,10,20,0.00,2,,16
2011-12-25,66,60,54,62,56,46,100,87,63,30.30,30.25,30.21,10,8,4,13,5,,0.08,8,Rain,46
2011-12-26,64,60,56,63,58,48,100,91,57,30.25,30.05,29.87,10,7,1,22,10,36,0.95,8,Rain-Thunderstorm,95
2011-12-27,66,55,44,64,54,39,100,84,57,30.17,29.97,29.90,10,8,1,17,9,36,0.26,6,Rain,262
2011-12-28,57,47,37,42,38,36,100,75,44,30.24,30.17,30.14,10,8,0,8,2,,0.00,0,Fog-Rain,315
2011-12-29,64,50,37,61,52,35,100,80,57,30.15,30.07,30.01,10,10,8,12,6,,0.01,6,Rain,117
2011-12-30,71,60,48,63,56,48,100,94,64,30.12,30.05,30.00,10,4,0,13,4,20,0.10,2,Fog-Rain,294
2011-12-31,68,62,57,63,60,57,100,96,73,30.21,30.16,30.05,10,5,0,9,5,,0.00,3,Fog,258